Time;durP1;ratioP1;P1;durP2;ratioP2;P2;SDS_P1;SDS_P2;PMS_P1;PMS_P2;Temp;Humidity;BMP_temperature;BMP_pressure;BME280_temperature;BME280_humidity;BME280_pressure;Samples;Min_cycle;Max_cycle;Signal;HPM_P1;HPM_P2
2023/05/08 00:00:21;;;;;;;4.03;3.72;;;16.90;85.40;;;;;;5030395;28;20038;-64
2023/05/08 00:02:47;;;;;;;4.22;3.92;;;16.90;85.30;;;;;;5027096;28;20724;-63
2023/05/08 00:05:12;;;;;;;4.43;4.03;;;16.90;85.50;;;;;;5026873;28;21347;-64
2023/05/08 00:07:38;;;;;;;4.38;4.07;;;16.90;85.60;;;;;;5024827;28;20041;-64
2023/05/08 00:10:05;;;;;;;4.25;3.95;;;16.90;85.60;;;;;;5027373;28;20065;-64
2023/05/08 00:12:31;;;;;;;5.05;4.20;;;16.90;85.60;;;;;;5028460;28;20092;-64
2023/05/08 00:14:57;;;;;;;4.85;4.43;;;16.90;85.50;;;;;;5024151;28;20040;-64
2023/05/08 00:17:23;;;;;;;4.60;4.20;;;17.00;85.70;;;;;;5029118;28;20037;-64
2023/05/08 00:19:48;;;;;;;5.70;4.03;;;17.00;85.70;;;;;;5026533;28;20033;-64
2023/05/08 00:22:14;;;;;;;5.00;4.35;;;17.00;85.70;;;;;;5023289;28;20061;-64
2023/05/08 00:24:39;;;;;;;5.15;4.30;;;17.00;85.70;;;;;;5024581;28;20130;-64
2023/05/08 00:27:06;;;;;;;4.18;3.90;;;17.00;85.70;;;;;;5027434;28;20033;-64
2023/05/08 00:29:33;;;;;;;4.35;3.95;;;17.00;85.70;;;;;;5026146;28;20096;-64
2023/05/08 00:31:59;;;;;;;4.68;4.25;;;17.00;85.60;;;;;;5025138;28;20029;-64
2023/05/08 00:34:25;;;;;;;4.32;3.92;;;17.00;85.60;;;;;;5024878;28;20064;-64
2023/05/08 00:36:51;;;;;;;4.70;4.30;;;17.00;85.80;;;;;;5025778;28;20312;-64
2023/05/08 00:39:16;;;;;;;4.65;4.25;;;17.00;85.90;;;;;;5026003;28;20048;-64
2023/05/08 00:41:42;;;;;;;7.15;4.22;;;17.00;85.90;;;;;;5024597;28;20528;-64
2023/05/08 00:44:07;;;;;;;4.97;4.57;;;17.00;85.90;;;;;;5028174;28;20388;-64
2023/05/08 00:46:34;;;;;;;4.70;4.32;;;17.00;85.70;;;;;;5033257;28;20034;-64
2023/05/08 00:48:59;;;;;;;4.60;4.20;;;17.00;85.70;;;;;;5025586;28;20041;-64
2023/05/08 00:51:26;;;;;;;4.53;4.20;;;17.00;85.70;;;;;;5024484;28;20438;-64
2023/05/08 00:53:52;;;;;;;4.78;4.38;;;17.00;85.70;;;;;;5031886;28;20049;-64
2023/05/08 00:56:20;;;;;;;4.72;4.32;;;17.00;85.70;;;;;;5026428;28;20061;-63
2023/05/08 00:58:46;;;;;;;5.93;4.60;;;17.00;85.70;;;;;;5027679;28;20263;-64
2023/05/08 01:01:13;;;;;;;4.72;4.32;;;17.00;85.70;;;;;;5023183;28;20021;-64
2023/05/08 01:03:39;;;;;;;4.88;4.43;;;17.00;85.90;;;;;;5025353;28;20029;-64
2023/05/08 01:06:05;;;;;;;5.15;4.65;;;17.00;85.90;;;;;;5025272;28;20174;-64
2023/05/08 01:08:31;;;;;;;4.70;4.30;;;17.00;85.90;;;;;;5027422;28;20080;-64
2023/05/08 01:11:21;;;;;;;4.57;4.18;;;17.00;85.90;;;;;;5024699;28;20103;-64
2023/05/08 01:14:15;;;;;;;4.85;4.45;;;16.90;86.20;;;;;;5033104;28;20037;-64
2023/05/08 01:17:08;;;;;;;4.72;4.30;;;16.90;86.70;;;;;;5029754;28;20381;-64
2023/05/08 01:19:33;;;;;;;5.35;4.60;;;16.90;86.60;;;;;;5031212;28;20128;-64
2023/05/08 01:22:15;;;;;;;5.18;4.78;;;16.80;86.00;;;;;;5034370;28;20125;-64
2023/05/08 01:25:06;;;;;;;5.13;4.68;;;16.90;86.20;;;;;;5029151;28;20037;-64
2023/05/08 01:27:43;;;;;;;5.72;4.85;;;16.80;86.20;;;;;;5025179;28;20048;-64
2023/05/08 01:30:50;;;;;;;4.75;4.35;;;16.80;86.30;;;;;;5027299;28;20061;-64
2023/05/08 01:33:25;;;;;;;6.25;4.45;;;16.80;87.20;;;;;;5030339;28;20048;-64
2023/05/08 01:36:20;;;;;;;;;;;16.80;86.40;;;;;;5033527;28;20036;-64
2023/05/08 01:39:16;;;;;;;4.13;3.83;;;16.90;87.00;;;;;;5009802;28;19917;-64
2023/05/08 01:41:53;;;;;;;4.70;4.30;;;16.90;86.80;;;;;;5031992;28;20026;-64
2023/05/08 01:44:23;;;;;;;6.47;4.38;;;16.90;86.20;;;;;;5031909;28;20034;-64
2023/05/08 01:46:50;;;;;;;5.10;4.70;;;16.80;86.20;;;;;;5033822;28;20037;-64
2023/05/08 01:49:26;;;;;;;4.63;4.30;;;16.80;86.30;;;;;;5030015;28;20037;-64
2023/05/08 01:51:58;;;;;;;4.88;4.30;;;16.80;86.90;;;;;;5026617;28;20032;-64
2023/05/08 01:54:27;;;;;;;4.68;4.22;;;16.80;86.90;;;;;;5026293;28;20037;-64
2023/05/08 01:56:56;;;;;;;4.47;4.10;;;16.90;86.90;;;;;;5032587;28;20053;-64
2023/05/08 01:59:24;;;;;;;5.13;4.72;;;16.90;87.00;;;;;;5025761;28;20116;-64
2023/05/08 02:01:55;;;;;;;4.78;4.38;;;16.80;86.90;;;;;;5027928;28;20470;-64
2023/05/08 02:04:22;;;;;;;4.88;4.47;;;16.90;87.30;;;;;;5030327;28;20179;-64
2023/05/08 02:06:50;;;;;;;5.32;4.50;;;16.80;87.10;;;;;;5029244;28;20038;-64
2023/05/08 02:09:16;;;;;;;5.20;4.75;;;16.70;87.20;;;;;;5029545;28;20228;-64
2023/05/08 02:11:44;;;;;;;5.20;4.80;;;16.80;87.30;;;;;;5026148;28;20033;-64
2023/05/08 02:14:12;;;;;;;4.72;4.32;;;16.80;87.30;;;;;;5024943;28;20029;-64
2023/05/08 02:16:40;;;;;;;5.45;4.32;;;16.90;87.30;;;;;;5028213;28;20056;-64
2023/05/08 02:19:09;;;;;;;4.50;4.20;;;16.80;87.20;;;;;;5029429;28;20384;-64
2023/05/08 02:21:35;;;;;;;4.78;4.32;;;16.90;87.30;;;;;;5029846;28;20037;-64
2023/05/08 02:24:03;;;;;;;5.15;4.65;;;16.90;87.20;;;;;;5025549;28;20194;-64
2023/05/08 02:26:30;;;;;;;4.88;4.47;;;16.90;87.10;;;;;;5029544;28;20634;-64
2023/05/08 02:28:57;;;;;;;4.75;4.35;;;16.90;87.10;;;;;;5029669;28;20040;-64
2023/05/08 02:31:23;;;;;;;4.47;4.18;;;16.90;87.10;;;;;;5029909;28;20037;-64
2023/05/08 02:33:51;;;;;;;9.48;4.57;;;16.90;87.20;;;;;;5030283;28;20041;-64
2023/05/08 02:36:18;;;;;;;5.15;4.65;;;16.90;87.30;;;;;;5030280;28;20155;-64
2023/05/08 02:38:47;;;;;;;4.80;4.40;;;16.90;87.40;;;;;;5030339;28;20609;-63
2023/05/08 02:41:14;;;;;;;4.97;4.45;;;16.90;87.30;;;;;;5030398;28;20498;-64
2023/05/08 02:43:40;;;;;;;4.45;4.13;;;16.90;87.30;;;;;;5027673;28;20037;-64
2023/05/08 02:46:17;;;;;;;4.53;4.13;;;16.90;87.40;;;;;;5024926;28;20049;-63
2023/05/08 02:49:03;;;;;;;4.18;3.88;;;16.90;87.50;;;;;;5029267;28;20400;-63
2023/05/08 02:52:00;;;;;;;5.25;3.97;;;16.90;88.10;;;;;;5031001;28;20037;-64
2023/05/08 02:54:47;;;;;;;3.95;3.65;;;16.90;88.30;;;;;;5024002;28;20048;-63
2023/05/08 02:57:30;;;;;;;3.95;3.50;;;16.90;87.60;;;;;;5030355;28;20051;-64
2023/05/08 03:00:03;;;;;;;3.10;2.90;;;16.90;88.00;;;;;;5028722;28;20053;-64
2023/05/08 03:02:36;;;;;;;2.00;1.90;;;16.90;87.60;;;;;;5031475;28;20033;-64
2023/05/08 03:05:14;;;;;;;1.80;1.70;;;16.80;87.60;;;;;;5031485;28;20528;-63
2023/05/08 03:07:41;;;;;;;1.70;1.60;;;16.80;87.40;;;;;;5022685;28;20128;-63
2023/05/08 03:10:14;;;;;;;1.98;1.52;;;16.90;87.20;;;;;;5030162;28;20514;-64
2023/05/08 03:12:44;;;;;;;1.55;1.30;;;16.80;87.10;;;;;;5026006;28;20091;-64
2023/05/08 03:15:25;;;;;;;1.85;1.73;;;16.80;87.10;;;;;;5031101;28;20123;-64
2023/05/08 03:18:01;;;;;;;2.25;1.30;;;16.80;87.60;;;;;;5028038;28;20113;-63
2023/05/08 03:20:32;;;;;;;1.23;1.20;;;16.80;87.40;;;;;;5031287;28;20095;-64
2023/05/08 03:22:59;;;;;;;1.60;1.50;;;16.70;87.10;;;;;;5023434;28;20045;-64
2023/05/08 03:25:27;;;;;;;1.35;1.27;;;16.70;87.10;;;;;;5030822;28;20091;-64
2023/05/08 03:27:54;;;;;;;1.90;1.40;;;16.70;87.10;;;;;;5027907;28;20386;-64
2023/05/08 03:30:20;;;;;;;1.98;1.30;;;16.60;87.10;;;;;;5026208;28;20100;-64
2023/05/08 03:32:46;;;;;;;1.35;1.27;;;16.60;87.30;;;;;;5025318;28;20041;-64
2023/05/08 03:35:14;;;;;;;1.23;1.23;;;16.50;87.30;;;;;;5022998;28;20114;-64
2023/05/08 03:37:41;;;;;;;1.45;1.27;;;16.50;87.30;;;;;;5021332;28;20029;-62
2023/05/08 03:40:07;;;;;;;1.40;1.30;;;16.50;87.20;;;;;;5021940;28;20122;-63
2023/05/08 03:42:34;;;;;;;1.75;1.30;;;16.50;87.30;;;;;;5020604;28;20132;-64
2023/05/08 03:45:02;;;;;;;1.50;1.30;;;16.50;87.30;;;;;;5022938;28;20505;-64
2023/05/08 03:47:28;;;;;;;11.45;5.53;;;16.40;87.40;;;;;;5032847;28;20038;-63
2023/05/08 03:49:54;;;;;;;56.58;40.70;;;16.40;87.50;;;;;;5032963;28;20090;-64
2023/05/08 03:52:20;;;;;;;10.88;9.73;;;16.40;87.40;;;;;;5027626;28;20061;-64
2023/05/08 03:54:46;;;;;;;21.85;14.05;;;16.40;87.40;;;;;;5030773;28;20029;-64
2023/05/08 03:57:12;;;;;;;5.68;4.78;;;16.40;87.30;;;;;;5026420;28;20041;-64
2023/05/08 03:59:49;;;;;;;3.38;3.08;;;16.40;87.20;;;;;;5028165;28;20036;-64
2023/05/08 04:02:19;;;;;;;2.22;2.08;;;16.40;87.40;;;;;;5023697;28;20467;-64
2023/05/08 04:04:46;;;;;;;1.80;1.70;;;16.40;87.40;;;;;;5028877;28;20052;-64
2023/05/08 04:07:26;;;;;;;1.52;1.42;;;16.30;87.10;;;;;;5025186;28;20048;-64
2023/05/08 04:10:26;;;;;;;1.58;1.40;;;16.30;87.40;;;;;;5032673;28;20159;-64
2023/05/08 04:13:10;;;;;;;1.60;1.50;;;16.30;87.60;;;;;;5026292;28;20038;-64
2023/05/08 04:15:59;;;;;;;1.80;1.38;;;16.30;87.70;;;;;;5028404;28;20026;-64
2023/05/08 04:18:28;;;;;;;1.50;1.40;;;16.20;87.90;;;;;;5027465;28;20037;-64
2023/05/08 04:20:56;;;;;;;2.70;1.55;;;16.20;87.50;;;;;;5032448;28;20036;-64
2023/05/08 04:23:23;;;;;;;2.45;1.20;;;16.20;87.60;;;;;;5021800;28;20119;-64
2023/05/08 04:25:51;;;;;;;1.50;1.40;;;16.20;87.80;;;;;;5021895;28;20043;-64
2023/05/08 04:28:19;;;;;;;1.50;1.40;;;16.20;88.00;;;;;;5025731;28;20413;-64
2023/05/08 04:30:45;;;;;;;2.78;1.58;;;16.20;88.00;;;;;;5032543;28;20040;-64
2023/05/08 04:33:12;;;;;;;1.70;1.60;;;16.20;88.20;;;;;;5034929;28;20046;-64
2023/05/08 04:35:38;;;;;;;1.58;1.48;;;16.20;88.40;;;;;;5035441;28;20041;-64
2023/05/08 04:38:03;;;;;;;3.10;1.83;;;16.20;88.30;;;;;;5036643;28;20038;-64
2023/05/08 04:40:29;;;;;;;2.20;1.40;;;16.20;88.30;;;;;;5033263;28;20052;-64
2023/05/08 04:42:55;;;;;;;1.65;1.55;;;16.20;88.30;;;;;;5034826;28;20034;-64
2023/05/08 04:45:20;;;;;;;1.55;1.45;;;16.20;88.40;;;;;;5034074;28;20044;-64
2023/05/08 04:47:46;;;;;;;1.95;1.80;;;16.20;88.40;;;;;;5035655;28;20045;-64
2023/05/08 04:50:11;;;;;;;2.42;1.75;;;16.10;89.20;;;;;;5036251;28;20505;-64
2023/05/08 04:52:37;;;;;;;2.47;1.77;;;16.20;88.50;;;;;;5034062;28;20033;-64
2023/05/08 04:55:03;;;;;;;2.17;1.95;;;16.20;88.60;;;;;;5037967;28;20696;-64
2023/05/08 04:57:28;;;;;;;2.05;1.85;;;16.20;88.60;;;;;;5035745;28;20036;-64
2023/05/08 04:59:54;;;;;;;3.33;2.00;;;16.10;88.70;;;;;;5035022;28;20064;-64
2023/05/08 05:02:19;;;;;;;2.22;2.00;;;16.10;88.80;;;;;;5035474;28;20037;-64
2023/05/08 05:04:45;;;;;;;2.20;1.95;;;16.20;88.90;;;;;;5033741;28;20111;-64
2023/05/08 05:07:11;;;;;;;2.30;2.10;;;16.10;89.00;;;;;;5036024;28;20049;-64
2023/05/08 05:09:37;;;;;;;2.30;2.10;;;16.10;89.10;;;;;;5036368;28;20037;-64
2023/05/08 05:12:04;;;;;;;2.40;2.17;;;16.10;89.10;;;;;;5030103;28;20077;-64
2023/05/08 05:14:30;;;;;;;2.50;2.28;;;16.10;89.20;;;;;;5035429;28;20033;-64
2023/05/08 05:16:55;;;;;;;2.28;2.15;;;16.10;89.30;;;;;;5032988;28;20039;-64
2023/05/08 05:19:21;;;;;;;4.55;2.63;;;16.10;89.30;;;;;;5035354;28;20048;-64
2023/05/08 05:21:47;;;;;;;3.03;2.80;;;16.20;89.30;;;;;;5034440;28;20041;-64
2023/05/08 05:24:12;;;;;;;5.32;2.60;;;16.20;89.20;;;;;;5035382;28;20412;-64
2023/05/08 05:26:38;;;;;;;4.25;2.88;;;16.20;89.10;;;;;;5036377;28;20112;-64
2023/05/08 05:29:04;;;;;;;5.97;2.97;;;16.20;89.00;;;;;;5034616;28;20040;-64
2023/05/08 05:31:29;;;;;;;4.70;3.03;;;16.30;89.20;;;;;;5034630;28;20044;-63
2023/05/08 05:33:55;;;;;;;3.30;2.92;;;16.20;89.10;;;;;;5036033;28;20457;-64
2023/05/08 05:36:21;;;;;;;4.95;3.15;;;16.20;89.10;;;;;;5033616;28;20041;-64
2023/05/08 05:38:46;;;;;;;5.38;3.30;;;16.20;89.10;;;;;;5034835;28;20108;-63
2023/05/08 05:41:12;;;;;;;3.33;3.03;;;16.20;89.20;;;;;;5033988;28;20037;-63
2023/05/08 05:43:37;;;;;;;4.55;3.28;;;16.30;89.20;;;;;;5035908;28;20033;-64
2023/05/08 05:46:08;;;;;;;4.55;3.20;;;16.30;89.30;;;;;;5036803;28;20396;-64
2023/05/08 05:48:33;;;;;;;5.15;3.33;;;16.30;89.30;;;;;;5035357;28;20532;-64
2023/05/08 05:50:59;;;;;;;4.57;3.20;;;16.30;89.30;;;;;;5035666;28;20044;-63
2023/05/08 05:53:25;;;;;;;7.35;3.22;;;16.30;89.10;;;;;;5036495;28;20036;-63
2023/05/08 05:55:51;;;;;;;3.25;3.05;;;16.40;89.00;;;;;;5037045;28;20040;-63
2023/05/08 05:58:17;;;;;;;6.00;3.20;;;16.40;89.00;;;;;;5035164;28;20045;-63
2023/05/08 06:00:43;;;;;;;3.67;2.75;;;16.40;89.10;;;;;;5036109;28;20040;-64
2023/05/08 06:03:09;;;;;;;3.30;3.00;;;16.30;89.20;;;;;;5036160;28;20548;-63
2023/05/08 06:05:35;;;;;;;3.45;3.15;;;16.30;89.10;;;;;;5034132;28;20610;-63
2023/05/08 06:08:01;;;;;;;4.97;3.70;;;16.40;89.00;;;;;;5033123;28;20041;-63
2023/05/08 06:10:27;;;;;;;5.75;3.60;;;16.40;89.10;;;;;;5031911;28;20079;-63
2023/05/08 06:12:53;;;;;;;3.65;3.25;;;16.40;89.20;;;;;;5033917;28;20583;-63
2023/05/08 06:15:19;;;;;;;3.40;2.97;;;16.40;89.40;;;;;;5034737;28;20036;-63
2023/05/08 06:17:44;;;;;;;3.70;2.83;;;16.40;89.50;;;;;;5033429;28;20056;-63
2023/05/08 06:20:11;;;;;;;3.40;3.08;;;16.40;89.40;;;;;;5033208;28;20057;-63
2023/05/08 06:22:38;;;;;;;3.50;3.20;;;16.40;89.40;;;;;;5028475;28;20084;-63
2023/05/08 06:25:05;;;;;;;3.60;3.30;;;16.40;89.50;;;;;;5034510;28;20515;-62
2023/05/08 06:27:32;;;;;;;5.00;3.22;;;16.40;89.70;;;;;;5035403;28;20069;-63
2023/05/08 06:29:57;;;;;;;3.28;3.08;;;16.40;89.70;;;;;;5034544;28;20105;-63
2023/05/08 06:32:23;;;;;;;4.03;3.25;;;16.40;89.40;;;;;;5035307;28;20465;-63
2023/05/08 06:34:48;;;;;;;3.70;3.40;;;16.40;89.40;;;;;;5034111;28;20509;-63
2023/05/08 06:37:14;;;;;;;3.28;3.08;;;16.40;89.50;;;;;;5032671;28;20056;-63
2023/05/08 06:39:39;;;;;;;6.10;2.92;;;16.50;89.60;;;;;;5032902;28;20033;-63
2023/05/08 06:42:05;;;;;;;3.13;2.92;;;16.50;90.20;;;;;;5034085;28;20393;-63
2023/05/08 06:44:32;;;;;;;3.10;2.90;;;16.50;90.10;;;;;;5034590;28;20031;-64
2023/05/08 06:46:57;;;;;;;6.32;3.50;;;16.50;89.70;;;;;;5036046;28;20025;-63
2023/05/08 06:49:23;;;;;;;4.68;4.28;;;16.50;89.70;;;;;;5034612;28;20491;-63
2023/05/08 06:51:48;;;;;;;3.95;3.33;;;16.50;89.70;;;;;;5026189;28;20552;-63
2023/05/08 06:54:14;;;;;;;3.35;3.15;;;16.60;89.70;;;;;;5030885;28;20032;-63
2023/05/08 06:56:40;;;;;;;4.40;3.58;;;16.60;89.70;;;;;;5035214;28;20500;-64
2023/05/08 06:59:05;;;;;;;3.47;3.28;;;16.60;89.70;;;;;;5036344;28;20017;-64
2023/05/08 07:01:31;;;;;;;3.30;3.10;;;16.70;89.50;;;;;;5034263;28;20061;-64
2023/05/08 07:03:56;;;;;;;3.22;2.92;;;16.70;89.30;;;;;;5032909;28;20033;-65
2023/05/08 07:06:22;;;;;;;3.15;2.95;;;16.70;89.20;;;;;;5035590;28;20431;-64
2023/05/08 07:08:48;;;;;;;3.33;3.03;;;16.80;89.10;;;;;;5035619;28;20036;-63
2023/05/08 07:11:13;;;;;;;3.53;3.33;;;16.70;88.90;;;;;;5029300;28;20468;-64
2023/05/08 07:13:40;;;;;;;3.58;3.28;;;16.80;89.00;;;;;;5031699;28;20384;-63
2023/05/08 07:16:09;;;;;;;3.80;3.22;;;16.80;88.90;;;;;;5033883;28;20053;-64
2023/05/08 07:18:35;;;;;;;3.38;3.08;;;16.70;89.00;;;;;;5033236;28;20408;-64
2023/05/08 07:21:01;;;;;;;3.28;3.05;;;16.80;89.00;;;;;;5033187;28;20041;-63
2023/05/08 07:23:26;;;;;;;3.72;3.42;;;16.80;89.10;;;;;;5036057;28;20049;-63
2023/05/08 07:25:53;;;;;;;5.05;3.10;;;16.80;89.20;;;;;;5038212;28;20153;-63
2023/05/08 07:28:19;;;;;;;3.42;3.13;;;16.80;89.30;;;;;;5035116;28;20036;-63
2023/05/08 07:30:45;;;;;;;3.22;3.03;;;16.90;89.30;;;;;;5039188;28;20033;-63
2023/05/08 07:33:11;;;;;;;3.45;2.85;;;16.90;89.30;;;;;;5038869;28;20516;-63
2023/05/08 07:35:40;;;;;;;3.15;2.75;;;16.90;89.40;;;;;;5039209;28;20083;-64
2023/05/08 07:38:06;;;;;;;2.95;2.70;;;16.90;89.40;;;;;;5037600;28;20037;-64
2023/05/08 07:40:32;;;;;;;3.15;2.95;;;16.90;89.20;;;;;;5036183;28;20049;-62
2023/05/08 07:42:57;;;;;;;2.97;2.78;;;17.00;89.20;;;;;;5037826;28;20116;-63
2023/05/08 07:45:23;;;;;;;2.50;2.30;;;17.00;89.10;;;;;;5037969;28;20050;-63
2023/05/08 07:47:49;;;;;;;3.20;2.90;;;17.00;89.10;;;;;;5039052;28;20033;-64
2023/05/08 07:50:15;;;;;;;3.90;3.00;;;17.00;89.00;;;;;;5034560;28;20037;-63
2023/05/08 07:52:41;;;;;;;2.38;2.17;;;17.00;89.30;;;;;;5036674;28;20852;-64
2023/05/08 07:55:06;;;;;;;2.72;2.53;;;17.00;88.80;;;;;;5038117;28;20029;-64
2023/05/08 07:57:36;;;;;;;2.53;2.40;;;17.10;88.70;;;;;;5037046;28;20160;-63
2023/05/08 08:00:03;;;;;;;2.60;2.40;;;17.10;88.70;;;;;;5037752;28;20041;-63
2023/05/08 08:02:28;;;;;;;2.50;2.30;;;17.10;88.80;;;;;;5035493;28;20428;-63
2023/05/08 08:04:54;;;;;;;2.83;2.63;;;17.00;88.70;;;;;;5037458;28;20047;-64
2023/05/08 08:07:20;;;;;;;2.58;2.40;;;17.10;88.60;;;;;;5035200;28;20726;-64
2023/05/08 08:09:45;;;;;;;2.38;2.28;;;17.10;88.50;;;;;;5038603;28;20452;-64
2023/05/08 08:12:11;;;;;;;2.40;2.30;;;17.10;88.30;;;;;;5035585;28;20048;-63
2023/05/08 08:14:36;;;;;;;2.95;2.72;;;17.10;88.50;;;;;;5037787;28;20052;-63
2023/05/08 08:17:02;;;;;;;2.60;2.40;;;17.10;88.60;;;;;;5039749;28;20035;-64
2023/05/08 08:19:27;;;;;;;2.47;2.30;;;17.10;88.50;;;;;;5036995;28;20045;-64
2023/05/08 08:21:53;;;;;;;2.40;2.20;;;17.00;88.60;;;;;;5036872;28;20132;-64
2023/05/08 08:24:19;;;;;;;2.65;2.40;;;17.10;88.60;;;;;;5033915;28;20063;-64
2023/05/08 08:26:45;;;;;;;2.35;2.17;;;17.00;88.50;;;;;;5038242;28;20516;-64
2023/05/08 08:29:10;;;;;;;2.80;2.60;;;17.00;88.60;;;;;;5036556;28;20037;-64
2023/05/08 08:31:36;;;;;;;2.83;2.63;;;17.00;88.60;;;;;;5036006;28;20056;-63
2023/05/08 08:34:01;;;;;;;2.42;2.28;;;17.10;88.90;;;;;;5037960;28;20042;-63
2023/05/08 08:36:27;;;;;;;2.70;2.50;;;17.00;89.00;;;;;;5034967;28;20125;-63
2023/05/08 08:38:52;;;;;;;2.65;2.45;;;17.10;89.00;;;;;;5035590;28;20040;-63
2023/05/08 08:41:18;;;;;;;2.38;2.03;;;17.10;89.00;;;;;;5035950;28;20493;-63
2023/05/08 08:43:44;;;;;;;2.47;2.10;;;17.10;89.00;;;;;;5032026;28;20121;-63
2023/05/08 08:46:13;;;;;;;2.03;1.92;;;17.10;89.10;;;;;;5035880;28;20453;-63
2023/05/08 08:48:43;;;;;;;2.38;2.17;;;17.10;89.20;;;;;;5037034;28;20041;-63
2023/05/08 08:51:14;;;;;;;2.17;2.08;;;17.20;89.30;;;;;;5036671;28;20107;-63
2023/05/08 08:53:45;;;;;;;2.10;2.00;;;17.20;89.50;;;;;;5036473;28;20447;-63
2023/05/08 08:56:12;;;;;;;1.92;1.83;;;17.20;89.70;;;;;;5035437;28;20045;-63
2023/05/08 08:58:49;;;;;;;1.70;1.50;;;17.30;89.70;;;;;;5036869;28;20547;-63
2023/05/08 09:01:17;;;;;;;1.67;1.58;;;17.30;89.70;;;;;;5036646;28;20092;-63
2023/05/08 09:03:42;;;;;;;1.75;1.65;;;17.40;89.30;;;;;;5035288;28;20045;-63
2023/05/08 09:06:09;;;;;;;1.70;1.60;;;17.40;89.30;;;;;;5038540;28;20044;-63
2023/05/08 09:08:36;;;;;;;2.00;1.90;;;17.50;89.50;;;;;;5032794;28;20099;-61
2023/05/08 09:11:02;;;;;;;1.83;1.73;;;17.60;89.70;;;;;;5031502;28;20067;-62
2023/05/08 09:13:30;;;;;;;2.35;1.80;;;17.60;89.00;;;;;;5036702;28;20394;-61
2023/05/08 09:15:59;;;;;;;1.83;1.73;;;17.70;88.30;;;;;;5036840;28;20120;-63
2023/05/08 09:18:24;;;;;;;1.60;1.50;;;17.70;88.10;;;;;;5035895;28;20056;-61
2023/05/08 09:20:50;;;;;;;1.27;1.17;;;17.70;88.00;;;;;;5034972;28;20048;-61
2023/05/08 09:23:17;;;;;;;1.42;1.33;;;17.80;88.30;;;;;;5035903;28;20084;-61
2023/05/08 09:25:47;;;;;;;1.00;1.00;;;17.80;88.30;;;;;;5033924;28;20099;-61
2023/05/08 09:28:24;;;;;;;1.58;1.48;;;17.90;88.10;;;;;;5033892;28;20530;-62
2023/05/08 09:30:55;;;;;;;1.13;1.13;;;18.00;88.10;;;;;;5035391;28;20045;-62
2023/05/08 09:33:23;;;;;;;1.02;1.02;;;18.00;87.50;;;;;;5034759;28;20041;-62
2023/05/08 09:35:49;;;;;;;1.83;1.40;;;18.10;87.60;;;;;;5035332;28;20405;-62
2023/05/08 09:38:35;;;;;;;1.33;1.23;;;18.20;87.60;;;;;;5036132;28;20103;-61
2023/05/08 09:41:15;;;;;;;1.27;1.25;;;18.30;87.70;;;;;;5036099;28;20404;-61
2023/05/08 09:43:42;;;;;;;1.33;1.30;;;18.40;86.90;;;;;;5035887;28;20025;-61
2023/05/08 09:46:21;;;;;;;1.60;1.50;;;18.50;87.20;;;;;;5034210;28;20535;-62
2023/05/08 09:48:48;;;;;;;1.67;1.58;;;18.50;87.40;;;;;;5035645;28;20179;-62
2023/05/08 09:51:13;;;;;;;1.70;1.60;;;18.60;87.10;;;;;;5034116;28;20076;-61
2023/05/08 09:53:39;;;;;;;2.92;1.50;;;18.70;86.40;;;;;;5034500;28;20485;-61
2023/05/08 09:56:05;;;;;;;2.42;1.38;;;18.80;85.50;;;;;;5035601;28;20091;-60
2023/05/08 09:58:42;;;;;;;2.35;1.48;;;18.80;85.00;;;;;;5033942;28;20033;-61
2023/05/08 10:01:45;;;;;;;1.80;1.70;;;18.80;83.80;;;;;;5034071;28;20037;-62
2023/05/08 10:04:10;;;;;;;1.60;1.50;;;18.80;84.50;;;;;;5035810;28;20123;-61
2023/05/08 10:06:36;;;;;;;1.63;1.52;;;18.70;84.60;;;;;;5034278;28;20473;-61
2023/05/08 10:09:12;;;;;;;4.03;3.72;;;18.70;84.80;;;;;;5036289;28;20033;-62
2023/05/08 10:11:51;;;;;;;14.32;9.93;;;18.80;84.90;;;;;;5034152;28;20120;-61
2023/05/08 10:14:18;;;;;;;13.05;11.02;;;18.70;84.60;;;;;;5034549;28;20079;-61
2023/05/08 10:16:45;;;;;;;13.65;11.05;;;18.70;84.60;;;;;;5035404;28;20037;-61
2023/05/08 10:19:14;;;;;;;13.10;10.80;;;18.70;84.70;;;;;;5036429;28;20038;-61
2023/05/08 10:21:45;;;;;;;13.00;10.30;;;18.60;84.90;;;;;;5032913;28;20026;-62
2023/05/08 10:24:15;;;;;;;13.90;11.90;;;18.60;85.00;;;;;;5035760;28;20052;-62
2023/05/08 10:26:47;;;;;;;12.90;11.50;;;18.50;85.30;;;;;;5034088;28;20480;-61
2023/05/08 10:29:20;;;;;;;13.10;11.70;;;18.50;85.30;;;;;;5031808;28;20065;-61
2023/05/08 10:31:48;;;;;;;14.50;12.20;;;18.40;85.50;;;;;;5036144;28;20041;-61
2023/05/08 10:34:18;;;;;;;13.60;12.20;;;18.40;85.30;;;;;;5035257;28;20102;-62
2023/05/08 10:36:46;;;;;;;15.40;13.00;;;18.30;85.70;;;;;;5032665;28;20059;-61
2023/05/08 10:39:15;;;;;;;14.98;13.15;;;18.20;85.70;;;;;;5034353;28;20460;-59
2023/05/08 10:41:42;;;;;;;15.85;12.40;;;18.20;85.70;;;;;;5036126;28;20022;-61
2023/05/08 10:44:08;;;;;;;13.15;11.77;;;18.00;85.80;;;;;;5035333;28;20037;-61
2023/05/08 10:46:46;;;;;;;14.95;13.40;;;17.90;86.00;;;;;;5031553;28;20117;-62
2023/05/08 10:49:21;;;;;;;16.85;13.82;;;17.90;86.40;;;;;;5035075;28;20108;-61
2023/05/08 10:52:12;;;;;;;18.10;16.15;;;17.90;86.90;;;;;;5034135;28;20021;-62
2023/05/08 10:54:41;;;;;;;17.77;15.32;;;17.80;86.50;;;;;;5031257;28;20049;-64
2023/05/08 10:57:09;;;;;;;20.00;15.80;;;17.70;86.50;;;;;;5035970;28;20142;-62
2023/05/08 10:59:36;;;;;;;20.77;17.17;;;17.60;86.70;;;;;;5036049;28;20037;-64
2023/05/08 11:02:06;;;;;;;23.13;16.75;;;17.60;87.00;;;;;;5040259;28;20048;-61
2023/05/08 11:04:33;;;;;;;19.27;16.48;;;17.50;87.30;;;;;;5039483;28;20454;-62
2023/05/08 11:06:59;;;;;;;18.17;15.15;;;17.40;87.40;;;;;;5039703;28;20033;-64
2023/05/08 11:09:41;;;;;;;18.08;14.43;;;17.40;87.60;;;;;;5037777;28;20119;-63
2023/05/08 11:12:15;;;;;;;19.25;15.15;;;17.30;87.80;;;;;;5034558;28;20260;-64
2023/05/08 11:14:42;;;;;;;15.80;13.85;;;17.20;87.90;;;;;;5039093;28;20087;-63
2023/05/08 11:17:08;;;;;;;16.83;14.00;;;17.20;88.00;;;;;;5040416;28;20056;-62
2023/05/08 11:19:35;;;;;;;16.35;14.52;;;17.20;88.20;;;;;;5038432;28;20064;-63
2023/05/08 11:22:12;;;;;;;16.92;14.35;;;17.20;88.30;;;;;;5039224;28;20033;-62
2023/05/08 11:24:40;;;;;;;15.57;13.75;;;17.10;88.70;;;;;;5038233;28;20571;-61
2023/05/08 11:27:05;;;;;;;15.73;13.88;;;17.10;88.60;;;;;;5037725;28;20076;-64
2023/05/08 11:29:31;;;;;;;16.80;14.50;;;17.10;89.70;;;;;;5038909;28;20061;-62
2023/05/08 11:31:57;;;;;;;18.45;16.40;;;17.00;89.20;;;;;;5037883;28;20028;-62
2023/05/08 11:34:41;;;;;;;19.90;15.82;;;17.00;89.50;;;;;;5037289;28;20064;-64
2023/05/08 11:37:20;;;;;;;15.48;13.85;;;17.00;90.00;;;;;;5039430;28;20026;-60
2023/05/08 11:39:47;;;;;;;13.32;11.98;;;17.00;90.20;;;;;;5038410;28;20116;-64
2023/05/08 11:42:24;;;;;;;13.68;12.13;;;17.00;90.00;;;;;;5036154;28;20182;-63
2023/05/08 11:45:13;;;;;;;12.52;11.32;;;17.00;90.30;;;;;;5037439;28;20044;-63
2023/05/08 11:47:43;;;;;;;12.27;11.07;;;17.00;90.40;;;;;;5039095;28;20037;-63
2023/05/08 11:50:10;;;;;;;11.80;10.40;;;17.00;90.10;;;;;;5037964;28;20041;-64
2023/05/08 11:52:38;;;;;;;13.25;10.43;;;17.00;90.10;;;;;;5035293;28;20390;-65
2023/05/08 11:55:09;;;;;;;10.88;9.77;;;17.00;90.10;;;;;;5039158;28;20565;-65
2023/05/08 11:57:35;;;;;;;11.48;10.27;;;17.00;90.20;;;;;;5037484;28;20037;-64
2023/05/08 12:00:09;;;;;;;11.27;10.18;;;17.10;90.10;;;;;;5036521;28;20118;-64
2023/05/08 12:02:44;;;;;;;10.83;9.70;;;17.10;90.10;;;;;;5035309;28;20065;-65
2023/05/08 12:05:10;;;;;;;12.15;10.07;;;17.20;90.00;;;;;;5036807;28;20292;-65
2023/05/08 12:07:45;;;;;;;11.10;9.85;;;17.20;90.00;;;;;;5038747;28;20559;-65
2023/05/08 12:10:12;;;;;;;11.85;9.80;;;17.20;90.00;;;;;;5037147;28;20037;-65
2023/05/08 12:12:39;;;;;;;10.48;8.85;;;17.20;89.70;;;;;;5034065;28;20025;-65
2023/05/08 12:15:09;;;;;;;10.15;9.15;;;17.20;89.80;;;;;;5037702;28;20128;-64
2023/05/08 12:17:36;;;;;;;9.52;8.63;;;17.20;89.90;;;;;;5034893;28;20504;-65
2023/05/08 12:20:13;;;;;;;9.63;8.73;;;17.20;89.70;;;;;;5038206;28;20082;-64
2023/05/08 12:22:49;;;;;;;9.50;8.60;;;17.20;90.00;;;;;;5038751;28;20048;-65
2023/05/08 12:25:16;;;;;;;9.13;8.23;;;17.20;89.70;;;;;;5037084;28;20065;-64
2023/05/08 12:27:42;;;;;;;9.57;8.68;;;17.20;89.50;;;;;;5036328;28;20502;-64
2023/05/08 12:30:10;;;;;;;8.85;8.05;;;17.30;90.10;;;;;;5037209;28;20172;-64
2023/05/08 12:32:38;;;;;;;9.90;8.98;;;17.30;89.50;;;;;;5036097;28;20441;-65
2023/05/08 12:35:05;;;;;;;10.27;9.15;;;17.20;89.40;;;;;;5037373;28;20116;-64
2023/05/08 12:37:31;;;;;;;9.88;8.98;;;17.30;89.70;;;;;;5037892;28;20492;-65
2023/05/08 12:39:57;;;;;;;10.43;9.43;;;17.30;89.80;;;;;;5036162;28;20098;-65
2023/05/08 12:42:43;;;;;;;10.10;9.10;;;17.30;89.80;;;;;;5035946;28;20033;-65
2023/05/08 12:45:23;;;;;;;9.18;8.27;;;17.30;89.90;;;;;;5036761;28;20040;-65
2023/05/08 12:47:49;;;;;;;10.02;9.02;;;17.30;89.60;;;;;;5036931;28;20026;-64
2023/05/08 12:50:17;;;;;;;9.85;8.85;;;17.40;89.50;;;;;;5037020;28;20626;-64
2023/05/08 12:52:42;;;;;;;9.02;8.18;;;17.40;89.50;;;;;;5035608;28;20071;-65